createdAt,value
2023-02-20T00:00:20.228Z,591.0000
2023-02-20T00:01:22.491Z,591.0000
2023-02-20T00:02:24.811Z,592.0000
2023-02-20T00:03:27.105Z,591.0000
2023-02-20T00:04:29.302Z,592.0000
2023-02-20T00:05:31.533Z,589.0000
2023-02-20T00:06:33.831Z,590.0000
2023-02-20T00:07:36.082Z,590.0000
2023-02-20T00:08:38.372Z,589.0000
2023-02-20T00:09:40.611Z,587.0000
2023-02-20T00:10:42.837Z,586.0000
2023-02-20T00:11:45.096Z,584.0000
2023-02-20T00:12:47.343Z,588.0000
2023-02-20T00:13:49.633Z,588.0000
2023-02-20T00:14:51.886Z,587.0000
2023-02-20T00:15:54.213Z,586.0000
2023-02-20T00:16:54.286Z,588.0000
2023-02-20T00:17:56.628Z,589.0000
2023-02-20T00:18:58.956Z,584.0000
2023-02-20T00:20:01.243Z,581.0000
2023-02-20T00:21:03.543Z,579.0000
2023-02-20T00:22:05.867Z,582.0000
2023-02-20T00:23:06.020Z,579.0000
2023-02-20T00:24:08.341Z,579.0000
2023-02-20T00:25:10.618Z,577.0000
2023-02-20T00:26:13.325Z,577.0000
2023-02-20T00:27:15.109Z,578.0000
2023-02-20T00:28:17.379Z,581.0000
2023-02-20T00:29:19.703Z,582.0000
2023-02-20T00:30:21.986Z,582.0000
2023-02-20T00:31:24.298Z,582.0000
2023-02-20T00:31:43.648Z,585.0000
2023-02-20T00:32:45.764Z,581.0000
2023-02-20T00:33:47.998Z,580.0000
2023-02-20T00:34:50.323Z,582.0000
2023-02-20T00:35:52.586Z,581.0000
2023-02-20T00:36:54.888Z,581.0000
2023-02-20T00:37:55.024Z,580.0000
2023-02-20T00:38:57.337Z,583.0000
2023-02-20T00:39:59.640Z,582.0000
2023-02-20T00:41:01.915Z,582.0000
2023-02-20T00:42:04.204Z,580.0000
2023-02-20T00:43:06.505Z,580.0000
2023-02-20T00:44:08.796Z,578.0000
2023-02-20T00:45:08.975Z,579.0000
2023-02-20T00:46:11.556Z,577.0000
2023-02-20T00:47:13.509Z,577.0000
2023-02-20T00:48:15.785Z,577.0000
2023-02-20T00:49:18.013Z,577.0000
2023-02-20T00:50:20.335Z,577.0000
2023-02-20T00:51:22.578Z,575.0000
2023-02-20T00:52:24.853Z,577.0000
2023-02-20T00:53:24.961Z,577.0000
2023-02-20T00:54:27.187Z,578.0000
2023-02-20T00:55:29.556Z,579.0000
2023-02-20T00:56:31.752Z,579.0000
2023-02-20T00:57:34.038Z,578.0000
2023-02-20T00:58:36.272Z,577.0000
2023-02-20T00:59:38.480Z,575.0000
2023-02-20T01:00:40.732Z,577.0000
2023-02-20T01:01:43.037Z,572.0000
2023-02-20T01:02:43.103Z,574.0000
2023-02-20T01:03:45.309Z,574.0000
2023-02-20T01:04:47.589Z,570.0000
2023-02-20T01:05:49.852Z,568.0000
2023-02-20T01:06:52.079Z,570.0000
2023-02-20T01:07:54.364Z,568.0000
2023-02-20T01:08:56.591Z,570.0000
2023-02-20T01:09:58.832Z,573.0000
2023-02-20T01:10:58.985Z,577.0000
2023-02-20T01:12:01.225Z,577.0000
2023-02-20T01:13:03.498Z,581.0000
2023-02-20T01:14:05.797Z,580.0000
2023-02-20T01:15:08.131Z,579.0000
2023-02-20T01:16:11.179Z,574.0000
2023-02-20T01:17:12.773Z,574.0000
2023-02-20T01:18:12.918Z,572.0000
2023-02-20T01:19:15.208Z,569.0000
2023-02-20T01:20:17.503Z,571.0000
2023-02-20T01:21:19.845Z,569.0000
2023-02-20T01:22:22.033Z,571.0000
2023-02-20T01:23:24.306Z,572.0000
2023-02-20T01:24:26.563Z,570.0000
2023-02-20T01:25:26.712Z,569.0000
2023-02-20T01:26:28.996Z,571.0000
2023-02-20T01:27:31.301Z,571.0000
2023-02-20T01:28:33.540Z,571.0000
2023-02-20T01:29:35.817Z,568.0000
2023-02-20T01:30:38.145Z,569.0000
2023-02-20T01:31:40.585Z,569.0000
2023-02-20T01:32:42.672Z,568.0000
2023-02-20T01:32:53.734Z,568.0000
2023-02-20T01:33:55.674Z,569.0000
2023-02-20T01:34:57.938Z,568.0000
2023-02-20T01:36:00.241Z,566.0000
2023-02-20T01:37:02.611Z,565.0000
2023-02-20T01:38:02.738Z,566.0000
2023-02-20T01:39:05.072Z,568.0000
2023-02-20T01:40:07.407Z,568.0000
2023-02-20T01:41:09.747Z,569.0000
2023-02-20T01:42:12.036Z,571.0000
2023-02-20T01:43:14.391Z,574.0000
2023-02-20T01:44:14.522Z,574.0000
2023-02-20T01:45:16.811Z,573.0000
2023-02-20T01:46:19.164Z,575.0000
2023-02-20T01:47:21.588Z,576.0000
2023-02-20T01:48:23.786Z,576.0000
2023-02-20T01:49:24.293Z,578.0000
2023-02-20T01:50:26.350Z,578.0000
2023-02-20T01:51:28.688Z,581.0000
2023-02-20T01:52:31.081Z,583.0000
2023-02-20T01:53:33.403Z,581.0000
2023-02-20T01:54:35.760Z,582.0000
2023-02-20T01:55:35.975Z,584.0000
2023-02-20T01:56:38.326Z,584.0000
2023-02-20T01:57:40.827Z,583.0000
2023-02-20T01:58:43.089Z,582.0000
2023-02-20T01:59:43.330Z,580.0000
2023-02-20T02:00:45.728Z,579.0000
2023-02-20T02:01:48.096Z,579.0000
2023-02-20T02:02:50.451Z,580.0000
2023-02-20T02:03:52.795Z,582.0000
2023-02-20T02:04:52.978Z,580.0000
2023-02-20T02:05:55.320Z,580.0000
2023-02-20T02:06:57.655Z,579.0000
2023-02-20T02:08:00.062Z,578.0000
2023-02-20T02:09:53.930Z,578.0000
2023-02-20T02:10:56.135Z,572.0000
2023-02-20T02:11:56.243Z,569.0000
2023-02-20T02:12:58.536Z,563.0000
2023-02-20T02:14:00.946Z,564.0000
2023-02-20T02:15:03.136Z,563.0000
2023-02-20T02:16:05.527Z,562.0000
2023-02-20T02:17:07.817Z,564.0000
2023-02-20T02:18:08.013Z,561.0000
2023-02-20T02:19:10.370Z,561.0000
2023-02-20T02:20:12.662Z,559.0000
2023-02-20T02:21:14.971Z,558.0000
2023-02-20T02:22:19.468Z,559.0000
2023-02-20T02:23:00.296Z,558.0000
2023-02-20T02:24:02.586Z,559.0000
2023-02-20T02:25:04.970Z,558.0000
2023-02-20T02:26:07.180Z,562.0000
2023-02-20T02:27:09.354Z,562.0000
2023-02-20T02:28:11.659Z,562.0000
2023-02-20T02:29:13.986Z,561.0000
2023-02-20T02:30:14.242Z,559.0000
2023-02-20T02:31:16.683Z,563.0000
2023-02-20T02:32:18.827Z,565.0000
2023-02-20T02:33:21.109Z,567.0000
2023-02-20T02:34:23.441Z,567.0000
2023-02-20T02:35:25.768Z,567.0000
2023-02-20T02:36:25.850Z,567.0000
2023-02-20T02:37:28.111Z,563.0000
2023-02-20T02:38:30.431Z,565.0000
2023-02-20T02:39:32.681Z,564.0000
2023-02-20T02:40:35.041Z,565.0000
2023-02-20T02:41:37.269Z,565.0000
2023-02-20T02:42:03.068Z,564.0000
2023-02-20T02:43:04.161Z,564.0000
2023-02-20T02:44:05.433Z,568.0000
2023-02-20T02:45:07.693Z,569.0000
2023-02-20T02:46:10.245Z,567.0000
2023-02-20T02:47:12.291Z,565.0000
2023-02-20T02:48:14.577Z,566.0000
2023-02-20T02:49:14.733Z,563.0000
2023-02-20T02:50:17.025Z,562.0000
2023-02-20T02:51:19.347Z,564.0000
2023-02-20T02:52:21.631Z,563.0000
2023-02-20T02:53:23.953Z,562.0000
2023-02-20T02:54:26.304Z,561.0000
2023-02-20T02:55:28.531Z,559.0000
2023-02-20T02:56:28.731Z,561.0000
2023-02-20T02:57:31.021Z,561.0000
2023-02-20T02:58:33.313Z,556.0000
2023-02-20T02:59:35.578Z,558.0000
2023-02-20T03:00:37.903Z,560.0000
2023-02-20T03:01:40.314Z,559.0000
2023-02-20T03:02:40.411Z,559.0000
2023-02-20T03:03:42.721Z,557.0000
2023-02-20T03:04:45.062Z,555.0000
2023-02-20T03:05:47.316Z,556.0000
2023-02-20T03:06:49.665Z,556.0000
2023-02-20T03:07:51.953Z,553.0000
2023-02-20T03:08:52.096Z,551.0000
2023-02-20T03:09:54.402Z,551.0000
2023-02-20T03:10:56.664Z,550.0000
2023-02-20T03:11:58.992Z,550.0000
2023-02-20T03:13:01.266Z,551.0000
2023-02-20T03:14:03.543Z,552.0000
2023-02-20T03:15:05.796Z,554.0000
2023-02-20T03:16:05.949Z,556.0000
2023-02-20T03:17:08.247Z,557.0000
2023-02-20T03:18:10.606Z,553.0000
2023-02-20T03:19:12.841Z,557.0000
2023-02-20T03:20:15.153Z,556.0000
2023-02-20T03:21:17.475Z,557.0000
2023-02-20T03:22:17.780Z,555.0000
2023-02-20T03:23:19.959Z,554.0000
2023-02-20T03:24:22.253Z,547.0000
2023-02-20T03:25:24.607Z,549.0000
2023-02-20T03:26:26.878Z,545.0000
2023-02-20T03:27:29.209Z,546.0000
2023-02-20T03:28:29.330Z,546.0000
2023-02-20T03:29:31.629Z,547.0000
2023-02-20T03:30:33.987Z,549.0000
2023-02-20T03:31:36.341Z,549.0000
2023-02-20T03:32:38.613Z,545.0000
2023-02-20T03:33:40.884Z,546.0000
2023-02-20T03:34:41.016Z,544.0000
2023-02-20T03:35:43.333Z,543.0000
2023-02-20T03:36:45.633Z,543.0000
2023-02-20T03:37:48.022Z,546.0000
2023-02-20T03:38:50.299Z,548.0000
2023-02-20T03:39:52.619Z,549.0000
2023-02-20T03:40:52.789Z,549.0000
2023-02-20T03:41:55.090Z,549.0000
2023-02-20T03:42:57.412Z,546.0000
2023-02-20T03:43:59.716Z,547.0000
2023-02-20T03:45:02.029Z,548.0000
2023-02-20T03:46:04.445Z,549.0000
2023-02-20T03:47:04.475Z,547.0000
2023-02-20T03:48:06.792Z,547.0000
2023-02-20T03:49:09.066Z,549.0000
2023-02-20T03:50:11.376Z,549.0000
2023-02-20T03:51:13.682Z,551.0000
2023-02-20T03:52:16.020Z,551.0000
2023-02-20T03:53:16.214Z,552.0000
2023-02-20T03:54:18.485Z,552.0000
2023-02-20T03:55:20.795Z,545.0000
2023-02-20T03:56:23.160Z,544.0000
2023-02-20T03:57:25.438Z,546.0000
2023-02-20T03:58:27.796Z,545.0000
2023-02-20T03:59:27.921Z,547.0000
2023-02-20T04:00:30.233Z,542.0000
2023-02-20T04:01:32.633Z,544.0000
2023-02-20T04:02:34.966Z,546.0000
2023-02-20T04:03:37.210Z,546.0000
2023-02-20T04:04:39.494Z,544.0000
2023-02-20T04:05:39.639Z,545.0000
2023-02-20T04:06:41.946Z,547.0000
2023-02-20T04:07:44.225Z,545.0000
2023-02-20T04:08:46.552Z,544.0000
2023-02-20T04:09:48.726Z,545.0000
2023-02-20T04:10:51.006Z,545.0000
2023-02-20T04:11:53.312Z,548.0000
2023-02-20T04:12:55.558Z,545.0000
2023-02-20T04:13:55.689Z,543.0000
2023-02-20T04:14:57.922Z,544.0000
2023-02-20T04:16:00.136Z,545.0000
2023-02-20T04:17:02.411Z,546.0000
2023-02-20T04:18:04.687Z,548.0000
2023-02-20T04:19:06.973Z,551.0000
2023-02-20T04:20:09.153Z,552.0000
2023-02-20T04:21:11.406Z,554.0000
2023-02-20T04:22:13.647Z,559.0000
2023-02-20T04:23:13.756Z,562.0000
2023-02-20T04:24:16.036Z,563.0000
2023-02-20T04:25:18.242Z,566.0000
2023-02-20T04:26:20.484Z,567.0000
2023-02-20T04:27:22.685Z,575.0000
2023-02-20T04:28:24.897Z,577.0000
2023-02-20T04:29:27.253Z,581.0000
2023-02-20T04:31:57.718Z,586.0000
2023-02-20T04:32:59.880Z,589.0000
2023-02-20T04:34:02.132Z,591.0000
2023-02-20T04:35:04.396Z,592.0000
2023-02-20T04:36:06.699Z,593.0000
2023-02-20T04:37:06.726Z,597.0000
2023-02-20T04:38:09.039Z,599.0000
2023-02-20T04:39:11.295Z,602.0000
2023-02-20T04:40:13.647Z,602.0000
2023-02-20T04:41:15.866Z,605.0000
2023-02-20T04:42:18.109Z,608.0000
2023-02-20T04:43:20.304Z,610.0000
2023-02-20T04:44:22.531Z,612.0000
2023-02-20T04:45:24.790Z,617.0000
2023-02-20T04:46:24.914Z,620.0000
2023-02-20T04:47:27.065Z,624.0000
2023-02-20T04:48:29.288Z,629.0000
2023-02-20T04:49:31.474Z,637.0000
2023-02-20T04:50:33.735Z,643.0000
2023-02-20T04:51:35.914Z,648.0000
2023-02-20T04:52:38.158Z,656.0000
2023-02-20T04:53:40.389Z,658.0000
2023-02-20T04:54:42.630Z,664.0000
2023-02-20T04:55:44.879Z,667.0000
2023-02-20T04:56:47.097Z,668.0000
2023-02-20T04:57:49.314Z,666.0000
2023-02-20T04:58:51.567Z,670.0000
2023-02-20T04:59:51.602Z,671.0000
2023-02-20T05:00:53.818Z,670.0000
2023-02-20T05:01:55.964Z,672.0000
2023-02-20T05:02:58.197Z,674.0000
2023-02-20T05:04:00.442Z,677.0000
2023-02-20T05:05:02.677Z,680.0000
2023-02-20T05:06:04.907Z,680.0000
2023-02-20T05:07:07.118Z,682.0000
2023-02-20T05:08:09.352Z,685.0000
2023-02-20T05:09:11.635Z,689.0000
2023-02-20T05:10:13.864Z,692.0000
2023-02-20T05:11:13.976Z,692.0000
2023-02-20T05:12:16.259Z,694.0000
2023-02-20T05:13:18.549Z,695.0000
2023-02-20T05:14:20.849Z,697.0000
2023-02-20T05:15:23.147Z,698.0000
2023-02-20T05:16:25.504Z,698.0000
2023-02-20T05:17:27.784Z,698.0000
2023-02-20T05:18:27.903Z,697.0000
2023-02-20T05:19:30.183Z,701.0000
2023-02-20T05:20:32.495Z,697.0000
2023-02-20T05:21:34.821Z,694.0000
2023-02-20T05:22:37.014Z,692.0000
2023-02-20T05:23:39.234Z,689.0000
2023-02-20T05:24:41.479Z,693.0000
2023-02-20T05:25:43.718Z,693.0000
2023-02-20T05:26:45.993Z,693.0000
2023-02-20T05:27:46.084Z,693.0000
2023-02-20T05:28:46.272Z,684.0000
2023-02-20T05:29:48.605Z,679.0000
2023-02-20T05:30:50.922Z,679.0000
2023-02-20T05:31:53.396Z,678.0000
2023-02-20T05:32:55.569Z,678.0000
2023-02-20T05:33:55.774Z,673.0000
2023-02-20T05:34:58.118Z,674.0000
2023-02-20T05:36:00.459Z,676.0000
2023-02-20T05:37:02.820Z,674.0000
2023-02-20T05:38:05.064Z,675.0000
2023-02-20T05:39:05.261Z,676.0000
2023-02-20T05:40:07.560Z,675.0000
2023-02-20T05:41:09.867Z,674.0000
2023-02-20T05:42:12.188Z,673.0000
2023-02-20T05:43:14.460Z,673.0000
2023-02-20T05:44:16.702Z,674.0000
2023-02-20T05:45:16.830Z,670.0000
2023-02-20T05:46:19.123Z,671.0000
2023-02-20T05:47:21.400Z,671.0000
2023-02-20T05:48:23.622Z,673.0000
2023-02-20T05:49:25.879Z,676.0000
2023-02-20T05:50:28.151Z,675.0000
2023-02-20T05:51:31.476Z,669.0000
2023-02-20T05:52:32.782Z,668.0000
2023-02-20T05:53:32.889Z,669.0000
2023-02-20T05:54:35.160Z,666.0000
2023-02-20T05:55:37.460Z,667.0000
2023-02-20T05:56:39.780Z,670.0000
2023-02-20T05:57:42.076Z,670.0000
2023-02-20T05:58:44.301Z,669.0000
2023-02-20T05:59:46.615Z,669.0000
2023-02-20T06:00:46.766Z,667.0000
2023-02-20T06:01:49.052Z,667.0000
2023-02-20T06:02:51.454Z,667.0000
2023-02-20T06:03:53.664Z,664.0000
2023-02-20T06:04:55.953Z,666.0000
2023-02-20T06:05:58.229Z,669.0000
2023-02-20T06:07:00.492Z,667.0000
2023-02-20T06:08:00.666Z,672.0000
2023-02-20T06:09:02.925Z,673.0000
2023-02-20T06:10:05.236Z,674.0000
2023-02-20T06:11:07.460Z,672.0000
2023-02-20T06:12:09.726Z,671.0000
2023-02-20T06:13:12.036Z,669.0000
2023-02-20T06:14:14.303Z,671.0000
2023-02-20T06:15:14.426Z,670.0000
2023-02-20T06:16:17.007Z,668.0000
2023-02-20T06:17:19.063Z,667.0000
2023-02-20T06:18:21.446Z,660.0000
2023-02-20T06:19:23.724Z,658.0000
2023-02-20T06:20:26.004Z,655.0000
2023-02-20T06:21:26.176Z,651.0000
2023-02-20T06:22:28.519Z,650.0000
2023-02-20T06:23:30.917Z,651.0000
2023-02-20T06:24:33.255Z,651.0000
2023-02-20T06:26:14.506Z,643.0000
2023-02-20T06:27:16.582Z,644.0000
2023-02-20T06:28:18.893Z,640.0000
2023-02-20T06:29:21.236Z,636.0000
2023-02-20T06:30:23.574Z,635.0000
2023-02-20T06:31:23.824Z,636.0000
2023-02-20T06:32:26.094Z,636.0000
2023-02-20T06:33:28.323Z,637.0000
2023-02-20T06:34:30.655Z,636.0000
2023-02-20T06:35:32.974Z,633.0000
2023-02-20T06:36:35.293Z,631.0000
2023-02-20T06:37:35.416Z,631.0000
2023-02-20T06:38:37.763Z,633.0000
2023-02-20T06:39:40.100Z,630.0000
2023-02-20T06:40:42.308Z,631.0000
2023-02-20T06:41:44.556Z,632.0000
2023-02-20T06:42:46.775Z,627.0000
2023-02-20T06:43:48.987Z,631.0000
2023-02-20T06:44:51.301Z,633.0000
2023-02-20T06:45:53.538Z,630.0000
2023-02-20T06:46:53.795Z,632.0000
2023-02-20T06:47:56.064Z,628.0000
2023-02-20T06:48:58.432Z,625.0000
2023-02-20T06:50:00.787Z,628.0000
2023-02-20T06:51:03.116Z,625.0000
2023-02-20T06:52:04.380Z,623.0000
2023-02-20T06:53:05.709Z,621.0000
2023-02-20T06:54:08.068Z,620.0000
2023-02-20T06:55:10.471Z,618.0000
2023-02-20T06:56:13.141Z,616.0000
2023-02-20T06:57:12.986Z,620.0000
2023-02-20T06:58:15.286Z,619.0000
2023-02-20T06:59:17.637Z,619.0000
2023-02-20T07:00:20.161Z,617.0000
2023-02-20T07:01:20.257Z,618.0000
2023-02-20T07:02:22.682Z,622.0000
2023-02-20T07:03:24.947Z,620.0000
2023-02-20T07:04:28.001Z,618.0000
2023-02-20T07:05:27.589Z,618.0000
2023-02-20T07:06:29.876Z,622.0000
2023-02-20T07:07:32.193Z,620.0000
2023-02-20T07:08:34.530Z,616.0000
2023-02-20T07:09:36.812Z,617.0000
2023-02-20T07:10:39.153Z,620.0000
2023-02-20T07:11:39.283Z,619.0000
2023-02-20T07:12:41.603Z,617.0000
2023-02-20T07:13:43.934Z,618.0000
2023-02-20T07:14:46.234Z,616.0000
2023-02-20T07:15:48.731Z,616.0000
2023-02-20T07:16:50.876Z,612.0000
2023-02-20T07:17:51.086Z,611.0000
2023-02-20T07:18:53.350Z,613.0000
2023-02-20T07:19:55.663Z,611.0000
2023-02-20T07:20:57.978Z,613.0000
2023-02-20T07:22:00.217Z,612.0000
2023-02-20T07:23:02.531Z,609.0000
2023-02-20T07:24:02.717Z,608.0000
2023-02-20T07:25:05.024Z,607.0000
2023-02-20T07:26:07.407Z,609.0000
2023-02-20T07:27:09.675Z,606.0000
2023-02-20T07:28:11.950Z,612.0000
2023-02-20T07:29:14.237Z,609.0000
2023-02-20T07:30:16.648Z,606.0000
2023-02-20T07:31:16.890Z,601.0000
2023-02-20T07:32:19.067Z,600.0000
2023-02-20T07:33:21.380Z,603.0000
2023-02-20T07:34:23.705Z,605.0000
2023-02-20T07:35:26.125Z,609.0000
2023-02-20T07:36:28.431Z,607.0000
2023-02-20T07:37:30.807Z,605.0000
2023-02-20T07:38:33.106Z,606.0000
2023-02-20T07:39:35.449Z,604.0000
2023-02-20T07:41:38.100Z,593.0000
2023-02-20T07:42:38.193Z,594.0000
2023-02-20T07:43:39.347Z,590.0000
2023-02-20T07:44:42.746Z,587.0000
2023-02-20T07:45:42.920Z,585.0000
2023-02-20T07:46:45.263Z,588.0000
2023-02-20T07:47:47.547Z,586.0000
2023-02-20T07:48:48.761Z,586.0000
2023-02-20T07:49:50.063Z,588.0000
2023-02-20T07:50:50.243Z,591.0000
2023-02-20T07:51:52.615Z,591.0000
2023-02-20T07:52:54.913Z,589.0000
2023-02-20T07:53:57.247Z,592.0000
2023-02-20T07:54:59.536Z,590.0000
2023-02-20T07:56:01.848Z,591.0000
2023-02-20T07:57:01.994Z,589.0000
2023-02-20T07:58:04.225Z,585.0000
2023-02-20T07:59:06.505Z,588.0000
2023-02-20T08:00:08.830Z,589.0000
2023-02-20T08:01:11.138Z,590.0000
2023-02-20T08:02:13.496Z,593.0000
2023-02-20T08:03:15.750Z,590.0000
2023-02-20T08:04:15.948Z,590.0000
2023-02-20T08:05:18.268Z,590.0000
2023-02-20T08:06:20.524Z,590.0000
2023-02-20T08:07:22.763Z,588.0000
2023-02-20T08:08:25.044Z,589.0000
2023-02-20T08:09:27.289Z,589.0000
2023-02-20T08:10:29.563Z,589.0000
2023-02-20T08:11:31.821Z,588.0000
2023-02-20T08:12:32.014Z,586.0000
2023-02-20T08:13:34.304Z,584.0000
2023-02-20T08:14:36.555Z,586.0000
2023-02-20T08:15:38.843Z,586.0000
2023-02-20T08:16:41.182Z,585.0000
2023-02-20T08:17:47.557Z,584.0000
2023-02-20T08:18:45.587Z,584.0000
2023-02-20T08:19:47.879Z,582.0000
2023-02-20T08:20:47.959Z,583.0000
2023-02-20T08:21:50.155Z,584.0000
2023-02-20T08:22:52.470Z,581.0000
2023-02-20T08:23:54.682Z,578.0000
2023-02-20T08:24:56.950Z,581.0000
2023-02-20T08:25:59.166Z,581.0000
2023-02-20T08:27:01.395Z,581.0000
2023-02-20T08:28:03.676Z,584.0000
2023-02-20T08:29:05.926Z,580.0000
2023-02-20T08:30:06.107Z,581.0000
2023-02-20T08:31:08.359Z,577.0000
2023-02-20T08:32:10.663Z,575.0000
2023-02-20T08:33:12.880Z,575.0000
2023-02-20T08:34:15.106Z,575.0000
2023-02-20T08:35:17.430Z,573.0000
2023-02-20T08:36:19.704Z,572.0000
2023-02-20T08:37:19.883Z,571.0000
2023-02-20T08:38:22.323Z,571.0000
2023-02-20T08:39:24.474Z,570.0000
2023-02-20T08:41:42.106Z,567.0000
2023-02-20T08:42:44.225Z,571.0000
2023-02-20T08:43:46.490Z,574.0000
2023-02-20T08:44:46.499Z,573.0000
2023-02-20T08:45:48.804Z,574.0000
2023-02-20T08:46:51.065Z,572.0000
2023-02-20T08:47:53.326Z,571.0000
2023-02-20T08:48:55.691Z,570.0000
2023-02-20T08:49:55.830Z,570.0000
2023-02-20T08:50:58.102Z,564.0000
2023-02-20T08:52:00.321Z,560.0000
2023-02-20T08:53:02.587Z,564.0000
2023-02-20T08:54:05.802Z,566.0000
2023-02-20T08:55:07.120Z,566.0000
2023-02-20T08:56:09.370Z,565.0000
2023-02-20T08:57:11.576Z,564.0000
2023-02-20T08:58:11.706Z,563.0000
2023-02-20T08:59:14.018Z,563.0000
2023-02-20T09:00:16.242Z,561.0000
2023-02-20T09:01:18.537Z,561.0000
2023-02-20T09:02:20.874Z,561.0000
2023-02-20T09:03:23.048Z,561.0000
2023-02-20T09:04:25.364Z,556.0000
2023-02-20T09:05:27.608Z,560.0000
2023-02-20T09:06:27.774Z,561.0000
2023-02-20T09:07:30.012Z,558.0000
2023-02-20T09:08:32.271Z,561.0000
2023-02-20T09:09:34.570Z,559.0000
2023-02-20T09:10:36.838Z,560.0000
2023-02-20T09:11:39.108Z,554.0000
2023-02-20T09:12:41.379Z,554.0000
2023-02-20T09:13:43.637Z,555.0000
2023-02-20T09:14:43.794Z,558.0000
2023-02-20T09:15:46.040Z,556.0000
2023-02-20T09:16:48.377Z,557.0000
2023-02-20T09:17:50.620Z,559.0000
2023-02-20T09:18:52.897Z,558.0000
2023-02-20T09:19:55.260Z,559.0000
2023-02-20T09:20:57.442Z,555.0000
2023-02-20T09:21:57.562Z,550.0000
2023-02-20T09:22:59.800Z,549.0000
2023-02-20T09:24:02.053Z,546.0000
2023-02-20T09:25:04.437Z,548.0000
2023-02-20T09:26:06.590Z,549.0000
2023-02-20T09:27:08.903Z,545.0000
2023-02-20T09:28:11.163Z,547.0000
2023-02-20T09:29:13.447Z,549.0000
2023-02-20T09:30:13.702Z,550.0000
2023-02-20T09:31:15.881Z,548.0000
2023-02-20T09:32:18.235Z,549.0000
2023-02-20T09:33:20.445Z,547.0000
2023-02-20T09:34:22.738Z,547.0000
2023-02-20T09:35:24.982Z,543.0000
2023-02-20T09:36:27.222Z,545.0000
2023-02-20T09:37:29.521Z,544.0000
2023-02-20T09:38:29.601Z,541.0000
2023-02-20T09:39:31.880Z,542.0000
2023-02-20T09:40:34.153Z,545.0000
2023-02-20T09:41:36.386Z,542.0000
2023-02-20T09:42:38.640Z,544.0000
2023-02-20T09:43:40.944Z,541.0000
2023-02-20T09:44:43.232Z,541.0000
2023-02-20T09:47:18.084Z,546.0000
2023-02-20T09:48:20.165Z,542.0000
2023-02-20T09:49:20.261Z,539.0000
2023-02-20T09:50:22.513Z,539.0000
2023-02-20T09:51:24.813Z,542.0000
2023-02-20T09:52:27.107Z,539.0000
2023-02-20T09:53:29.337Z,535.0000
2023-02-20T09:54:31.546Z,536.0000
2023-02-20T09:55:33.830Z,537.0000
2023-02-20T09:56:36.092Z,536.0000
2023-02-20T09:57:38.411Z,538.0000
2023-02-20T09:58:38.511Z,533.0000
2023-02-20T09:59:40.758Z,529.0000
2023-02-20T10:00:42.997Z,531.0000
2023-02-20T10:01:45.250Z,530.0000
2023-02-20T10:02:47.645Z,532.0000
2023-02-20T10:03:49.744Z,531.0000
2023-02-20T10:05:00.832Z,528.0000
2023-02-20T10:05:54.227Z,529.0000
2023-02-20T10:06:56.448Z,531.0000
2023-02-20T10:07:56.617Z,532.0000
2023-02-20T10:08:58.864Z,530.0000
2023-02-20T10:10:01.116Z,538.0000
2023-02-20T10:11:03.431Z,533.0000
2023-02-20T10:12:05.629Z,534.0000
2023-02-20T10:13:07.905Z,539.0000
2023-02-20T10:14:10.141Z,535.0000
2023-02-20T10:15:12.459Z,541.0000
2023-02-20T10:16:13.102Z,544.0000
2023-02-20T10:17:14.872Z,540.0000
2023-02-20T10:18:17.252Z,533.0000
2023-02-20T10:19:19.433Z,536.0000
2023-02-20T10:20:21.783Z,532.0000
2023-02-20T10:21:24.037Z,535.0000
2023-02-20T10:22:24.182Z,535.0000
2023-02-20T10:23:28.409Z,533.0000
2023-02-20T10:24:28.798Z,528.0000
2023-02-20T10:25:31.058Z,529.0000
2023-02-20T10:26:33.330Z,532.0000
2023-02-20T10:27:35.576Z,540.0000
2023-02-20T10:28:37.934Z,530.0000
2023-02-20T10:29:37.975Z,540.0000
2023-02-20T10:30:40.397Z,519.0000
2023-02-20T10:31:42.671Z,528.0000
2023-02-20T10:32:44.819Z,531.0000
2023-02-20T10:33:47.120Z,528.0000
2023-02-20T10:34:49.332Z,527.0000
2023-02-20T10:35:51.574Z,536.0000
2023-02-20T10:36:53.782Z,529.0000
2023-02-20T10:37:56.049Z,534.0000
2023-02-20T10:38:56.212Z,525.0000
2023-02-20T10:39:58.464Z,519.0000
2023-02-20T10:41:00.697Z,521.0000
2023-02-20T10:42:02.973Z,518.0000
2023-02-20T10:43:05.216Z,526.0000
2023-02-20T10:44:07.505Z,528.0000
2023-02-20T10:45:09.724Z,528.0000
2023-02-20T10:46:13.121Z,521.0000
2023-02-20T10:47:14.270Z,536.0000
2023-02-20T10:48:14.420Z,528.0000
2023-02-20T10:49:16.697Z,529.0000
2023-02-20T10:50:18.899Z,525.0000
2023-02-20T10:51:21.118Z,532.0000
2023-02-20T10:53:19.232Z,534.0000
2023-02-20T10:54:21.454Z,520.0000
2023-02-20T10:55:23.623Z,525.0000
2023-02-20T10:56:25.853Z,519.0000
2023-02-20T10:57:28.055Z,522.0000
2023-02-20T10:58:30.288Z,516.0000
2023-02-20T10:59:32.532Z,520.0000
2023-02-20T11:00:34.757Z,520.0000
2023-02-20T11:01:34.986Z,519.0000
2023-02-20T11:02:37.026Z,515.0000
2023-02-20T11:03:39.288Z,513.0000
2023-02-20T11:04:41.620Z,514.0000
2023-02-20T11:05:43.779Z,511.0000
2023-02-20T11:06:46.023Z,511.0000
2023-02-20T11:07:48.229Z,512.0000
2023-02-20T11:08:50.462Z,509.0000
2023-02-20T11:09:52.672Z,508.0000
2023-02-20T11:10:54.915Z,513.0000
2023-02-20T11:11:57.106Z,511.0000
2023-02-20T11:12:59.310Z,510.0000
2023-02-20T11:14:01.496Z,512.0000
2023-02-20T11:15:01.632Z,513.0000
2023-02-20T11:16:03.882Z,511.0000
2023-02-20T11:17:06.150Z,515.0000
2023-02-20T11:18:08.454Z,516.0000
2023-02-20T11:19:10.759Z,516.0000
2023-02-20T11:20:14.992Z,517.0000
2023-02-20T11:21:15.358Z,514.0000
2023-02-20T11:22:15.496Z,510.0000
2023-02-20T11:23:17.797Z,514.0000
2023-02-20T11:24:20.116Z,512.0000
2023-02-20T11:25:22.418Z,512.0000
2023-02-20T11:26:24.664Z,512.0000
2023-02-20T11:27:26.937Z,513.0000
2023-02-20T11:28:29.187Z,513.0000
2023-02-20T11:29:29.274Z,512.0000
2023-02-20T11:30:31.700Z,507.0000
2023-02-20T11:31:33.888Z,504.0000
2023-02-20T11:32:36.093Z,510.0000
2023-02-20T11:33:38.386Z,512.0000
2023-02-20T11:34:40.614Z,509.0000
2023-02-20T11:35:42.921Z,509.0000
2023-02-20T11:36:45.174Z,504.0000
2023-02-20T11:37:54.841Z,503.0000
2023-02-20T11:38:47.581Z,505.0000
2023-02-20T11:39:49.827Z,504.0000
2023-02-20T11:40:52.093Z,502.0000
2023-02-20T11:41:54.289Z,503.0000
2023-02-20T11:42:56.492Z,501.0000
2023-02-20T11:44:01.556Z,503.0000
2023-02-20T11:45:00.957Z,504.0000
2023-02-20T11:46:03.232Z,500.0000
2023-02-20T11:47:05.434Z,499.0000
2023-02-20T11:48:07.692Z,495.0000
2023-02-20T11:49:07.810Z,494.0000
2023-02-20T11:50:18.667Z,492.0000
2023-02-20T11:51:12.434Z,498.0000
2023-02-20T11:52:14.644Z,496.0000
2023-02-20T11:53:16.915Z,497.0000
2023-02-20T11:54:19.197Z,497.0000
2023-02-20T11:55:21.423Z,495.0000
2023-02-20T11:56:23.725Z,493.0000
2023-02-20T11:57:23.839Z,493.0000
2023-02-20T11:58:26.064Z,494.0000
2023-02-20T11:59:28.283Z,495.0000
2023-02-20T12:00:28.411Z,494.0000
2023-02-20T12:01:30.736Z,494.0000
2023-02-20T12:02:32.970Z,492.0000
2023-02-20T12:03:35.232Z,490.0000
2023-02-20T12:04:37.528Z,488.0000
2023-02-20T12:05:37.689Z,486.0000
2023-02-20T12:06:40.004Z,490.0000
2023-02-20T12:07:42.266Z,492.0000
2023-02-20T12:08:44.558Z,492.0000
2023-02-20T12:09:46.847Z,490.0000
2023-02-20T12:10:49.117Z,494.0000
2023-02-20T12:11:49.384Z,496.0000
2023-02-20T12:12:51.608Z,494.0000